sensor_id;sensor_type;location;lat;lon;timestamp;P1;durP1;ratioP1;P2;durP2;ratioP2
6177;SDS011;3122;48.208;11.174;2024-03-25T00:01:02;4.33;;;2.30;;
6177;SDS011;3122;48.208;11.174;2024-03-25T00:06:03;3.23;;;2.53;;
6177;SDS011;3122;48.208;11.174;2024-03-25T00:11:03;2.57;;;2.37;;
6177;SDS011;3122;48.208;11.174;2024-03-25T00:16:04;3.90;;;2.40;;
6177;SDS011;3122;48.208;11.174;2024-03-25T00:21:06;5.27;;;2.90;;
6177;SDS011;3122;48.208;11.174;2024-03-25T00:26:06;4.90;;;2.87;;
6177;SDS011;3122;48.208;11.174;2024-03-25T00:31:07;5.20;;;2.50;;
6177;SDS011;3122;48.208;11.174;2024-03-25T00:36:08;5.80;;;2.63;;
6177;SDS011;3122;48.208;11.174;2024-03-25T00:41:08;3.27;;;2.97;;
6177;SDS011;3122;48.208;11.174;2024-03-25T00:46:09;6.77;;;2.90;;
6177;SDS011;3122;48.208;11.174;2024-03-25T00:51:09;2.83;;;2.53;;
6177;SDS011;3122;48.208;11.174;2024-03-25T00:56:10;5.37;;;2.73;;
6177;SDS011;3122;48.208;11.174;2024-03-25T01:01:10;3.03;;;2.20;;
6177;SDS011;3122;48.208;11.174;2024-03-25T01:06:11;4.67;;;2.47;;
6177;SDS011;3122;48.208;11.174;2024-03-25T01:11:12;4.53;;;2.40;;
6177;SDS011;3122;48.208;11.174;2024-03-25T01:16:13;4.43;;;2.90;;
6177;SDS011;3122;48.208;11.174;2024-03-25T01:21:13;2.70;;;2.50;;
6177;SDS011;3122;48.208;11.174;2024-03-25T01:26:14;2.40;;;2.20;;
6177;SDS011;3122;48.208;11.174;2024-03-25T01:31:15;4.80;;;2.53;;
6177;SDS011;3122;48.208;11.174;2024-03-25T01:36:16;3.03;;;2.67;;
6177;SDS011;3122;48.208;11.174;2024-03-25T01:41:20;5.63;;;3.10;;
6177;SDS011;3122;48.208;11.174;2024-03-25T01:46:22;7.97;;;3.33;;
6177;SDS011;3122;48.208;11.174;2024-03-25T01:51:23;3.57;;;3.03;;
6177;SDS011;3122;48.208;11.174;2024-03-25T01:56:25;4.20;;;3.40;;
6177;SDS011;3122;48.208;11.174;2024-03-25T02:01:26;10.73;;;3.70;;
6177;SDS011;3122;48.208;11.174;2024-03-25T02:06:28;4.30;;;3.30;;
6177;SDS011;3122;48.208;11.174;2024-03-25T02:11:30;4.37;;;3.30;;
6177;SDS011;3122;48.208;11.174;2024-03-25T02:16:32;3.77;;;3.20;;
6177;SDS011;3122;48.208;11.174;2024-03-25T02:21:32;3.70;;;3.17;;
6177;SDS011;3122;48.208;11.174;2024-03-25T02:26:33;4.53;;;3.67;;
6177;SDS011;3122;48.208;11.174;2024-03-25T02:31:33;7.40;;;3.10;;
6177;SDS011;3122;48.208;11.174;2024-03-25T02:36:34;3.40;;;3.10;;
6177;SDS011;3122;48.208;11.174;2024-03-25T02:41:34;4.33;;;3.50;;
6177;SDS011;3122;48.208;11.174;2024-03-25T02:46:36;4.60;;;3.43;;
6177;SDS011;3122;48.208;11.174;2024-03-25T02:51:40;4.93;;;3.40;;
6177;SDS011;3122;48.208;11.174;2024-03-25T02:56:40;4.07;;;3.53;;
6177;SDS011;3122;48.208;11.174;2024-03-25T03:01:41;4.80;;;3.87;;
6177;SDS011;3122;48.208;11.174;2024-03-25T03:06:41;7.17;;;3.50;;
6177;SDS011;3122;48.208;11.174;2024-03-25T03:11:42;3.73;;;2.60;;
6177;SDS011;3122;48.208;11.174;2024-03-25T03:16:42;3.53;;;3.00;;
6177;SDS011;3122;48.208;11.174;2024-03-25T03:21:43;4.77;;;3.07;;
6177;SDS011;3122;48.208;11.174;2024-03-25T03:26:44;4.20;;;3.00;;
6177;SDS011;3122;48.208;11.174;2024-03-25T03:31:44;3.17;;;2.87;;
6177;SDS011;3122;48.208;11.174;2024-03-25T03:36:45;5.07;;;3.20;;
6177;SDS011;3122;48.208;11.174;2024-03-25T03:41:45;4.10;;;2.90;;
6177;SDS011;3122;48.208;11.174;2024-03-25T03:46:46;4.47;;;3.50;;
6177;SDS011;3122;48.208;11.174;2024-03-25T03:51:46;4.77;;;3.00;;
6177;SDS011;3122;48.208;11.174;2024-03-25T03:56:47;4.40;;;3.23;;
6177;SDS011;3122;48.208;11.174;2024-03-25T04:01:47;3.83;;;3.37;;
6177;SDS011;3122;48.208;11.174;2024-03-25T04:06:48;4.20;;;3.13;;
6177;SDS011;3122;48.208;11.174;2024-03-25T04:11:49;3.87;;;2.90;;
6177;SDS011;3122;48.208;11.174;2024-03-25T04:16:49;5.07;;;3.43;;
6177;SDS011;3122;48.208;11.174;2024-03-25T04:21:53;5.37;;;3.67;;
6177;SDS011;3122;48.208;11.174;2024-03-25T04:26:53;5.53;;;3.83;;
6177;SDS011;3122;48.208;11.174;2024-03-25T04:31:54;5.13;;;3.17;;
6177;SDS011;3122;48.208;11.174;2024-03-25T04:36:58;4.90;;;3.30;;
6177;SDS011;3122;48.208;11.174;2024-03-25T04:41:59;4.57;;;3.53;;
6177;SDS011;3122;48.208;11.174;2024-03-25T04:47:00;5.83;;;3.30;;
6177;SDS011;3122;48.208;11.174;2024-03-25T04:52:00;6.63;;;3.50;;
6177;SDS011;3122;48.208;11.174;2024-03-25T04:57:03;6.13;;;3.43;;
6177;SDS011;3122;48.208;11.174;2024-03-25T05:02:06;5.00;;;2.90;;
6177;SDS011;3122;48.208;11.174;2024-03-25T05:07:06;7.20;;;3.43;;
6177;SDS011;3122;48.208;11.174;2024-03-25T05:12:07;5.80;;;3.10;;
6177;SDS011;3122;48.208;11.174;2024-03-25T05:17:08;5.90;;;3.67;;
6177;SDS011;3122;48.208;11.174;2024-03-25T05:22:09;5.80;;;2.70;;
6177;SDS011;3122;48.208;11.174;2024-03-25T05:27:09;3.63;;;3.20;;
6177;SDS011;3122;48.208;11.174;2024-03-25T05:32:10;5.33;;;3.17;;
6177;SDS011;3122;48.208;11.174;2024-03-25T05:37:10;5.47;;;3.23;;
6177;SDS011;3122;48.208;11.174;2024-03-25T05:42:11;5.40;;;3.60;;
6177;SDS011;3122;48.208;11.174;2024-03-25T05:47:11;3.10;;;2.80;;
6177;SDS011;3122;48.208;11.174;2024-03-25T05:52:14;4.13;;;2.97;;
6177;SDS011;3122;48.208;11.174;2024-03-25T05:57:14;5.50;;;3.40;;
6177;SDS011;3122;48.208;11.174;2024-03-25T06:02:15;5.10;;;3.20;;
6177;SDS011;3122;48.208;11.174;2024-03-25T06:07:15;5.00;;;3.30;;
6177;SDS011;3122;48.208;11.174;2024-03-25T06:12:16;3.20;;;2.90;;
6177;SDS011;3122;48.208;11.174;2024-03-25T06:17:16;6.83;;;3.27;;
6177;SDS011;3122;48.208;11.174;2024-03-25T06:22:17;3.80;;;3.33;;
6177;SDS011;3122;48.208;11.174;2024-03-25T06:27:18;9.03;;;3.63;;
6177;SDS011;3122;48.208;11.174;2024-03-25T06:32:19;5.73;;;2.50;;
6177;SDS011;3122;48.208;11.174;2024-03-25T06:37:38;5.40;;;3.60;;
6177;SDS011;3122;48.208;11.174;2024-03-25T06:42:39;4.20;;;3.33;;
6177;SDS011;3122;48.208;11.174;2024-03-25T06:47:39;5.97;;;3.30;;
6177;SDS011;3122;48.208;11.174;2024-03-25T06:52:40;10.67;;;3.53;;
6177;SDS011;3122;48.208;11.174;2024-03-25T06:57:41;8.00;;;4.67;;
6177;SDS011;3122;48.208;11.174;2024-03-25T07:02:41;4.10;;;3.67;;
6177;SDS011;3122;48.208;11.174;2024-03-25T07:07:42;6.67;;;3.17;;
6177;SDS011;3122;48.208;11.174;2024-03-25T07:12:43;6.10;;;2.90;;
6177;SDS011;3122;48.208;11.174;2024-03-25T07:17:44;5.80;;;2.90;;
6177;SDS011;3122;48.208;11.174;2024-03-25T07:22:44;3.03;;;2.43;;
6177;SDS011;3122;48.208;11.174;2024-03-25T07:27:45;7.13;;;3.23;;
6177;SDS011;3122;48.208;11.174;2024-03-25T07:32:45;6.10;;;2.50;;
6177;SDS011;3122;48.208;11.174;2024-03-25T07:37:47;4.57;;;2.73;;
6177;SDS011;3122;48.208;11.174;2024-03-25T07:42:51;5.00;;;2.63;;
6177;SDS011;3122;48.208;11.174;2024-03-25T07:47:52;4.17;;;3.53;;
6177;SDS011;3122;48.208;11.174;2024-03-25T07:52:53;8.43;;;4.90;;
6177;SDS011;3122;48.208;11.174;2024-03-25T07:57:53;7.73;;;3.73;;
6177;SDS011;3122;48.208;11.174;2024-03-25T08:02:54;4.40;;;2.83;;
6177;SDS011;3122;48.208;11.174;2024-03-25T08:07:55;3.63;;;2.90;;
6177;SDS011;3122;48.208;11.174;2024-03-25T08:12:55;5.13;;;2.93;;
6177;SDS011;3122;48.208;11.174;2024-03-25T08:17:56;4.63;;;3.10;;
6177;SDS011;3122;48.208;11.174;2024-03-25T08:22:56;7.10;;;3.33;;
6177;SDS011;3122;48.208;11.174;2024-03-25T08:27:57;5.50;;;3.13;;
6177;SDS011;3122;48.208;11.174;2024-03-25T08:32:58;6.73;;;2.90;;
6177;SDS011;3122;48.208;11.174;2024-03-25T08:37:59;6.23;;;3.73;;
6177;SDS011;3122;48.208;11.174;2024-03-25T08:42:59;4.00;;;3.30;;
6177;SDS011;3122;48.208;11.174;2024-03-25T08:48:00;7.00;;;3.60;;
6177;SDS011;3122;48.208;11.174;2024-03-25T08:53:00;3.53;;;3.23;;
6177;SDS011;3122;48.208;11.174;2024-03-25T08:58:01;5.17;;;3.00;;
6177;SDS011;3122;48.208;11.174;2024-03-25T09:03:02;4.20;;;3.53;;
6177;SDS011;3122;48.208;11.174;2024-03-25T09:08:07;10.43;;;4.10;;
6177;SDS011;3122;48.208;11.174;2024-03-25T09:13:11;3.30;;;3.00;;
6177;SDS011;3122;48.208;11.174;2024-03-25T09:18:12;6.20;;;3.40;;
6177;SDS011;3122;48.208;11.174;2024-03-25T09:23:12;6.53;;;3.40;;
6177;SDS011;3122;48.208;11.174;2024-03-25T09:28:13;3.93;;;2.90;;
6177;SDS011;3122;48.208;11.174;2024-03-25T09:33:14;2.97;;;2.57;;
6177;SDS011;3122;48.208;11.174;2024-03-25T09:38:14;2.60;;;2.40;;
6177;SDS011;3122;48.208;11.174;2024-03-25T09:43:16;3.40;;;2.53;;
6177;SDS011;3122;48.208;11.174;2024-03-25T09:48:23;4.53;;;2.20;;
6177;SDS011;3122;48.208;11.174;2024-03-25T09:53:24;5.20;;;2.50;;
6177;SDS011;3122;48.208;11.174;2024-03-25T09:58:25;1.97;;;1.87;;
6177;SDS011;3122;48.208;11.174;2024-03-25T10:03:26;2.30;;;2.10;;
6177;SDS011;3122;48.208;11.174;2024-03-25T10:08:27;2.17;;;1.97;;
6177;SDS011;3122;48.208;11.174;2024-03-25T10:13:30;4.40;;;2.53;;
6177;SDS011;3122;48.208;11.174;2024-03-25T10:18:31;2.33;;;2.13;;
6177;SDS011;3122;48.208;11.174;2024-03-25T10:23:31;2.13;;;1.90;;
6177;SDS011;3122;48.208;11.174;2024-03-25T10:28:35;2.80;;;2.43;;
6177;SDS011;3122;48.208;11.174;2024-03-25T10:33:35;2.63;;;2.20;;
6177;SDS011;3122;48.208;11.174;2024-03-25T10:38:36;3.17;;;2.07;;
6177;SDS011;3122;48.208;11.174;2024-03-25T10:43:37;3.07;;;2.37;;
6177;SDS011;3122;48.208;11.174;2024-03-25T10:48:39;2.33;;;2.10;;
6177;SDS011;3122;48.208;11.174;2024-03-25T10:53:41;2.90;;;2.00;;
6177;SDS011;3122;48.208;11.174;2024-03-25T10:58:44;5.10;;;2.30;;
6177;SDS011;3122;48.208;11.174;2024-03-25T11:03:47;2.20;;;2.00;;
6177;SDS011;3122;48.208;11.174;2024-03-25T11:08:55;2.30;;;1.90;;
6177;SDS011;3122;48.208;11.174;2024-03-25T11:13:57;2.37;;;2.00;;
6177;SDS011;3122;48.208;11.174;2024-03-25T11:19:02;7.17;;;2.07;;
6177;SDS011;3122;48.208;11.174;2024-03-25T11:24:06;2.17;;;2.00;;
6177;SDS011;3122;48.208;11.174;2024-03-25T11:29:07;1.87;;;1.60;;
6177;SDS011;3122;48.208;11.174;2024-03-25T11:34:08;2.00;;;1.80;;
6177;SDS011;3122;48.208;11.174;2024-03-25T11:39:08;2.00;;;1.80;;
6177;SDS011;3122;48.208;11.174;2024-03-25T11:44:09;3.10;;;1.47;;
6177;SDS011;3122;48.208;11.174;2024-03-25T11:49:13;2.20;;;2.00;;
6177;SDS011;3122;48.208;11.174;2024-03-25T11:54:15;2.20;;;1.63;;
6177;SDS011;3122;48.208;11.174;2024-03-25T11:59:16;2.17;;;1.63;;
6177;SDS011;3122;48.208;11.174;2024-03-25T12:04:17;2.77;;;1.83;;
6177;SDS011;3122;48.208;11.174;2024-03-25T12:09:18;1.80;;;1.70;;
6177;SDS011;3122;48.208;11.174;2024-03-25T12:14:38;3.10;;;1.90;;
6177;SDS011;3122;48.208;11.174;2024-03-25T12:19:38;2.00;;;1.80;;
6177;SDS011;3122;48.208;11.174;2024-03-25T12:24:41;4.50;;;1.80;;
6177;SDS011;3122;48.208;11.174;2024-03-25T12:29:42;1.80;;;1.70;;
6177;SDS011;3122;48.208;11.174;2024-03-25T12:34:42;2.23;;;2.00;;
6177;SDS011;3122;48.208;11.174;2024-03-25T12:39:49;2.30;;;2.00;;
6177;SDS011;3122;48.208;11.174;2024-03-25T12:44:50;2.10;;;1.70;;
6177;SDS011;3122;48.208;11.174;2024-03-25T12:49:51;2.50;;;1.90;;
6177;SDS011;3122;48.208;11.174;2024-03-25T12:54:52;2.37;;;1.93;;
6177;SDS011;3122;48.208;11.174;2024-03-25T12:59:52;2.30;;;1.70;;
6177;SDS011;3122;48.208;11.174;2024-03-25T13:04:53;5.80;;;1.60;;
6177;SDS011;3122;48.208;11.174;2024-03-25T13:09:54;2.30;;;1.50;;
6177;SDS011;3122;48.208;11.174;2024-03-25T13:14:54;3.47;;;1.70;;
6177;SDS011;3122;48.208;11.174;2024-03-25T13:19:56;2.50;;;1.70;;
6177;SDS011;3122;48.208;11.174;2024-03-25T13:24:56;1.90;;;1.80;;
6177;SDS011;3122;48.208;11.174;2024-03-25T13:29:57;2.13;;;2.00;;
6177;SDS011;3122;48.208;11.174;2024-03-25T13:34:57;1.97;;;1.67;;
6177;SDS011;3122;48.208;11.174;2024-03-25T13:39:58;2.90;;;1.90;;
6177;SDS011;3122;48.208;11.174;2024-03-25T13:44:58;3.27;;;1.83;;
6177;SDS011;3122;48.208;11.174;2024-03-25T13:50:05;4.10;;;2.20;;
6177;SDS011;3122;48.208;11.174;2024-03-25T13:55:10;3.33;;;1.87;;
6177;SDS011;3122;48.208;11.174;2024-03-25T14:00:11;2.40;;;2.20;;
6177;SDS011;3122;48.208;11.174;2024-03-25T14:05:13;1.77;;;1.67;;
6177;SDS011;3122;48.208;11.174;2024-03-25T14:10:14;1.80;;;1.70;;
6177;SDS011;3122;48.208;11.174;2024-03-25T14:15:14;1.87;;;1.77;;
6177;SDS011;3122;48.208;11.174;2024-03-25T14:20:15;3.43;;;1.67;;
6177;SDS011;3122;48.208;11.174;2024-03-25T14:25:16;2.10;;;1.70;;
6177;SDS011;3122;48.208;11.174;2024-03-25T14:30:16;1.40;;;1.30;;
6177;SDS011;3122;48.208;11.174;2024-03-25T14:35:17;1.57;;;1.47;;
6177;SDS011;3122;48.208;11.174;2024-03-25T14:40:17;3.87;;;1.40;;
6177;SDS011;3122;48.208;11.174;2024-03-25T14:45:18;1.40;;;1.30;;
6177;SDS011;3122;48.208;11.174;2024-03-25T14:50:18;1.70;;;1.60;;
6177;SDS011;3122;48.208;11.174;2024-03-25T14:55:19;2.27;;;1.80;;
6177;SDS011;3122;48.208;11.174;2024-03-25T15:00:19;2.57;;;1.77;;
6177;SDS011;3122;48.208;11.174;2024-03-25T15:05:20;1.70;;;1.60;;
6177;SDS011;3122;48.208;11.174;2024-03-25T15:10:21;2.77;;;1.80;;
6177;SDS011;3122;48.208;11.174;2024-03-25T15:15:21;2.17;;;1.87;;
6177;SDS011;3122;48.208;11.174;2024-03-25T15:20:22;2.00;;;1.90;;
6177;SDS011;3122;48.208;11.174;2024-03-25T15:25:22;4.23;;;1.60;;
6177;SDS011;3122;48.208;11.174;2024-03-25T15:30:23;5.73;;;2.10;;
6177;SDS011;3122;48.208;11.174;2024-03-25T15:35:24;3.53;;;2.30;;
6177;SDS011;3122;48.208;11.174;2024-03-25T15:40:25;1.93;;;1.77;;
6177;SDS011;3122;48.208;11.174;2024-03-25T15:45:26;2.30;;;2.10;;
6177;SDS011;3122;48.208;11.174;2024-03-25T15:50:29;4.00;;;2.40;;
6177;SDS011;3122;48.208;11.174;2024-03-25T15:55:29;3.67;;;2.20;;
6177;SDS011;3122;48.208;11.174;2024-03-25T16:00:30;2.80;;;2.23;;
6177;SDS011;3122;48.208;11.174;2024-03-25T16:05:31;3.17;;;2.27;;
6177;SDS011;3122;48.208;11.174;2024-03-25T16:10:33;4.73;;;2.37;;
6177;SDS011;3122;48.208;11.174;2024-03-25T16:15:35;4.90;;;2.17;;
6177;SDS011;3122;48.208;11.174;2024-03-25T16:20:35;2.53;;;2.13;;
6177;SDS011;3122;48.208;11.174;2024-03-25T16:25:36;2.60;;;2.10;;
6177;SDS011;3122;48.208;11.174;2024-03-25T16:30:36;2.77;;;2.00;;
6177;SDS011;3122;48.208;11.174;2024-03-25T16:35:37;2.40;;;2.10;;
6177;SDS011;3122;48.208;11.174;2024-03-25T16:40:38;7.23;;;5.50;;
6177;SDS011;3122;48.208;11.174;2024-03-25T16:45:39;2.70;;;2.33;;
6177;SDS011;3122;48.208;11.174;2024-03-25T16:50:39;3.80;;;2.90;;
6177;SDS011;3122;48.208;11.174;2024-03-25T16:55:40;3.73;;;2.63;;
6177;SDS011;3122;48.208;11.174;2024-03-25T17:00:40;4.23;;;2.30;;
6177;SDS011;3122;48.208;11.174;2024-03-25T17:05:41;2.50;;;2.30;;
6177;SDS011;3122;48.208;11.174;2024-03-25T17:10:41;3.90;;;2.37;;
6177;SDS011;3122;48.208;11.174;2024-03-25T17:15:42;2.93;;;1.90;;
6177;SDS011;3122;48.208;11.174;2024-03-25T17:20:43;4.60;;;2.13;;
6177;SDS011;3122;48.208;11.174;2024-03-25T17:25:44;3.80;;;2.13;;
6177;SDS011;3122;48.208;11.174;2024-03-25T17:30:45;2.13;;;1.80;;
6177;SDS011;3122;48.208;11.174;2024-03-25T17:35:47;17.93;;;8.80;;
6177;SDS011;3122;48.208;11.174;2024-03-25T17:40:47;6.90;;;2.10;;
6177;SDS011;3122;48.208;11.174;2024-03-25T17:45:48;2.67;;;2.47;;
6177;SDS011;3122;48.208;11.174;2024-03-25T17:50:55;4.40;;;2.53;;
6177;SDS011;3122;48.208;11.174;2024-03-25T17:56:00;2.83;;;2.00;;
6177;SDS011;3122;48.208;11.174;2024-03-25T18:01:01;6.00;;;1.87;;
6177;SDS011;3122;48.208;11.174;2024-03-25T18:06:02;2.70;;;2.00;;
6177;SDS011;3122;48.208;11.174;2024-03-25T18:11:03;2.63;;;2.13;;
6177;SDS011;3122;48.208;11.174;2024-03-25T18:16:03;4.03;;;2.20;;
6177;SDS011;3122;48.208;11.174;2024-03-25T18:21:04;3.33;;;2.40;;
6177;SDS011;3122;48.208;11.174;2024-03-25T18:26:04;3.30;;;2.00;;
6177;SDS011;3122;48.208;11.174;2024-03-25T18:31:05;3.90;;;1.93;;
6177;SDS011;3122;48.208;11.174;2024-03-25T18:36:08;2.43;;;2.00;;
6177;SDS011;3122;48.208;11.174;2024-03-25T18:41:09;2.73;;;2.20;;
6177;SDS011;3122;48.208;11.174;2024-03-25T18:46:09;2.30;;;2.10;;
6177;SDS011;3122;48.208;11.174;2024-03-25T18:51:10;3.33;;;2.17;;
6177;SDS011;3122;48.208;11.174;2024-03-25T18:56:10;2.43;;;2.27;;
6177;SDS011;3122;48.208;11.174;2024-03-25T19:01:11;2.60;;;2.40;;
6177;SDS011;3122;48.208;11.174;2024-03-25T19:06:12;5.07;;;2.40;;
6177;SDS011;3122;48.208;11.174;2024-03-25T19:11:12;2.40;;;2.20;;
6177;SDS011;3122;48.208;11.174;2024-03-25T19:16:13;3.10;;;2.50;;
6177;SDS011;3122;48.208;11.174;2024-03-25T19:21:14;3.07;;;2.70;;
6177;SDS011;3122;48.208;11.174;2024-03-25T19:26:14;4.63;;;3.20;;
6177;SDS011;3122;48.208;11.174;2024-03-25T19:31:15;4.00;;;2.73;;
6177;SDS011;3122;48.208;11.174;2024-03-25T19:36:15;5.60;;;2.80;;
6177;SDS011;3122;48.208;11.174;2024-03-25T19:41:16;5.27;;;3.17;;
6177;SDS011;3122;48.208;11.174;2024-03-25T19:46:16;5.60;;;2.50;;
6177;SDS011;3122;48.208;11.174;2024-03-25T19:51:17;4.87;;;2.93;;
6177;SDS011;3122;48.208;11.174;2024-03-25T19:56:17;2.73;;;2.53;;
6177;SDS011;3122;48.208;11.174;2024-03-25T20:01:18;6.73;;;2.97;;
6177;SDS011;3122;48.208;11.174;2024-03-25T20:06:19;4.30;;;2.77;;
6177;SDS011;3122;48.208;11.174;2024-03-25T20:11:20;3.20;;;2.50;;
6177;SDS011;3122;48.208;11.174;2024-03-25T20:16:20;7.53;;;4.67;;
6177;SDS011;3122;48.208;11.174;2024-03-25T20:21:22;11.37;;;4.30;;
6177;SDS011;3122;48.208;11.174;2024-03-25T20:26:22;4.57;;;3.30;;
6177;SDS011;3122;48.208;11.174;2024-03-25T20:31:23;3.50;;;3.20;;
6177;SDS011;3122;48.208;11.174;2024-03-25T20:36:24;7.00;;;3.53;;
6177;SDS011;3122;48.208;11.174;2024-03-25T20:41:24;7.70;;;3.70;;
6177;SDS011;3122;48.208;11.174;2024-03-25T20:46:25;3.70;;;3.40;;
6177;SDS011;3122;48.208;11.174;2024-03-25T20:51:28;4.37;;;3.50;;
6177;SDS011;3122;48.208;11.174;2024-03-25T20:56:29;4.27;;;3.60;;
6177;SDS011;3122;48.208;11.174;2024-03-25T21:01:29;4.60;;;3.60;;
6177;SDS011;3122;48.208;11.174;2024-03-25T21:06:30;6.50;;;3.20;;
6177;SDS011;3122;48.208;11.174;2024-03-25T21:11:30;3.60;;;3.30;;
6177;SDS011;3122;48.208;11.174;2024-03-25T21:16:31;5.93;;;3.40;;
6177;SDS011;3122;48.208;11.174;2024-03-25T21:21:31;4.40;;;3.77;;
6177;SDS011;3122;48.208;11.174;2024-03-25T21:26:32;9.30;;;3.93;;
6177;SDS011;3122;48.208;11.174;2024-03-25T21:31:33;5.03;;;2.90;;
6177;SDS011;3122;48.208;11.174;2024-03-25T21:36:33;5.53;;;3.20;;
6177;SDS011;3122;48.208;11.174;2024-03-25T21:41:34;4.93;;;3.50;;
6177;SDS011;3122;48.208;11.174;2024-03-25T21:46:35;3.53;;;3.23;;
6177;SDS011;3122;48.208;11.174;2024-03-25T21:51:36;5.90;;;3.40;;
6177;SDS011;3122;48.208;11.174;2024-03-25T21:56:36;5.33;;;4.07;;
6177;SDS011;3122;48.208;11.174;2024-03-25T22:01:37;6.80;;;3.43;;
6177;SDS011;3122;48.208;11.174;2024-03-25T22:06:37;6.10;;;5.33;;
6177;SDS011;3122;48.208;11.174;2024-03-25T22:11:38;14.40;;;8.60;;
6177;SDS011;3122;48.208;11.174;2024-03-25T22:16:38;8.37;;;5.07;;
6177;SDS011;3122;48.208;11.174;2024-03-25T22:21:39;5.77;;;4.60;;
6177;SDS011;3122;48.208;11.174;2024-03-25T22:26:40;11.43;;;7.03;;
6177;SDS011;3122;48.208;11.174;2024-03-25T22:31:40;6.90;;;4.43;;
6177;SDS011;3122;48.208;11.174;2024-03-25T22:36:41;7.37;;;4.90;;
6177;SDS011;3122;48.208;11.174;2024-03-25T22:41:41;4.60;;;4.00;;
6177;SDS011;3122;48.208;11.174;2024-03-25T22:46:43;5.40;;;3.60;;
6177;SDS011;3122;48.208;11.174;2024-03-25T22:51:44;4.40;;;3.60;;
6177;SDS011;3122;48.208;11.174;2024-03-25T22:56:44;5.20;;;4.00;;
6177;SDS011;3122;48.208;11.174;2024-03-25T23:01:45;5.00;;;4.30;;
6177;SDS011;3122;48.208;11.174;2024-03-25T23:06:45;5.87;;;4.40;;
6177;SDS011;3122;48.208;11.174;2024-03-25T23:11:46;5.30;;;3.73;;
6177;SDS011;3122;48.208;11.174;2024-03-25T23:16:47;5.23;;;3.90;;
6177;SDS011;3122;48.208;11.174;2024-03-25T23:21:47;5.43;;;3.40;;
6177;SDS011;3122;48.208;11.174;2024-03-25T23:26:48;5.67;;;3.80;;
6177;SDS011;3122;48.208;11.174;2024-03-25T23:31:48;5.60;;;4.13;;
6177;SDS011;3122;48.208;11.174;2024-03-25T23:36:49;4.37;;;3.53;;
6177;SDS011;3122;48.208;11.174;2024-03-25T23:41:49;6.10;;;4.37;;
6177;SDS011;3122;48.208;11.174;2024-03-25T23:46:50;5.90;;;4.10;;
6177;SDS011;3122;48.208;11.174;2024-03-25T23:51:50;6.87;;;5.13;;
6177;SDS011;3122;48.208;11.174;2024-03-25T23:56:51;4.83;;;4.20;;
